Latest Weather Observations for Newman Airport

IDW60801

Issued at 2:05 pm WST Saturday 29 November 2014 (issued every 30 minutes, with the page automatically refreshed every 10 minutes)

About weather observations | Map of weather stations | Latest weather observations for WA | Other Formats
Station Details ID: 007176 Name: NEWMAN AERO Lat: -23.42 Lon: 119.80 Height: 524.0 m
Data from the previous 72 hours. | See also: Recent months at Newman Airport
Date/Time
WST
Temp
°C
App
Temp
°C
Dew
Point
Rel
Hum
%
Delta-T
°C
Wind Press
QNH
hPa
Press
MSL
hPa
Rain
since 9 am
mm
Dir
 
Spd
km/h
Gust
km/h
Spd
kts
Gust
kts
29/02:00pm 37.6 33.2 4.5 13 18.2 NW 17 26 9 14 1008.8 1004.9 0.0
29/01:30pm 36.8 33.0 3.9 13 17.9 NW 13 26 7 14 1009.1 1005.2 0.0
29/01:00pm 36.5 31.9 3.7 13 17.8 WNW 17 24 9 13 1009.7 1005.8 0.0
29/12:30pm 35.9 31.8 4.2 14 17.2 WSW 15 22 8 12 1009.9 1006.0 0.0
29/12:00pm 35.1 32.8 5.5 16 16.4 W 7 19 4 10 1010.4 1006.5 0.0
29/11:30am 34.2 30.4 5.7 17 15.7 WSW 15 26 8 14 1010.8 1006.9 0.0
29/11:00am 33.8 30.3 5.4 17 15.6 WSW 13 22 7 12 1011.1 1007.2 0.0
29/10:30am 32.8 30.0 6.9 20 14.4 WNW 11 17 6 9 1011.6 1007.7 0.0
29/10:00am 32.6 30.6 8.8 23 13.7 ESE 9 20 5 11 1011.8 1007.9 0.0
29/09:30am 31.6 29.2 8.6 24 13.1 SE 11 19 6 10 1012.0 1008.1 0.0
29/09:00am 30.5 28.1 9.9 28 11.9 SSE 13 22 7 12 1012.3 1008.4 0.2
29/08:30am 29.4 26.4 10.5 31 11.0 S 17 22 9 12 1012.3 1008.4 0.2
29/08:00am 28.9 25.6 11.0 33 10.5 S 19 24 10 13 1012.2 1008.3 0.2
29/07:30am 27.4 25.6 13.4 42 8.5 S 15 20 8 11 1012.2 1008.3 0.2
29/07:00am 25.5 24.8 14.3 50 6.8 S 11 17 6 9 1012.2 1008.3 0.2
29/06:30am 24.0 23.5 15.0 57 5.5 SW 11 15 6 8 1012.1 1008.2 0.2
29/06:00am 22.2 23.1 16.7 71 3.4 SW 7 9 4 5 1011.9 1008.0 0.2
29/05:30am 20.6 21.7 17.0 80 2.2 WSW 7 9 4 5 1011.8 1007.9 0.2
29/05:00am 20.8 21.5 17.0 79 2.4 W 9 13 5 7 1011.7 1007.8 0.2
29/04:30am 20.6 21.4 18.2 86 1.5 WSW 11 11 6 6 1011.6 1007.7 0.2
29/04:00am 21.2 21.9 18.8 86 1.5 WSW 13 15 7 8 1011.2 1007.3 0.2
29/03:30am 21.8 23.1 18.4 81 2.2 WSW 9 13 5 7 1011.2 1007.3 0.2
29/03:00am 21.8 22.7 19.2 85 1.7 SW 13 15 7 8 1011.1 1007.2 0.2
29/02:30am 22.0 23.7 19.4 85 1.7 WSW 9 11 5 6 1011.2 1007.3 0.2
29/02:00am 22.8 26.3 19.6 82 2.1 CALM 0 0 0 0 1011.1 1007.2 0.2
29/01:30am 23.7 25.9 19.2 76 2.9 NNW 6 7 3 4 1011.2 1007.3 0.2
29/01:00am 24.0 26.0 19.1 74 3.2 WNW 7 11 4 6 1011.5 1007.6 0.2
29/12:30am 25.2 26.6 18.6 67 4.3 NW 9 13 5 7 1011.8 1007.9 0.2
29/12:00am 26.0 26.4 18.2 62 5.0 WNW 13 19 7 10 1011.8 1007.9 0.2
 
Date/Time
WST
Temp
°C
App
Temp
°C
Dew
Point
Rel
Hum
%
Delta-T
°C
Wind Press
QNH
hPa
Press
MSL
hPa
Rain
since 9 am
mm
Dir
 
Spd
km/h
Gust
km/h
Spd
kts
Gust
kts
28/11:30pm 26.4 26.9 18.3 61 5.2 NNW 13 20 7 11 1012.0 1008.1 0.2
28/11:00pm 26.9 26.7 17.7 57 5.9 N 15 20 8 11 1011.8 1007.9 0.2
28/10:30pm 27.5 26.1 17.1 53 6.6 N 20 28 11 15 1012.1 1008.2 0.2
28/10:00pm 28.3 27.4 17.8 53 6.8 N 19 28 10 15 1012.5 1008.6 0.2
28/09:30pm 27.8 28.7 18.5 57 6.1 NNE 11 17 6 9 1012.3 1008.4 0.2
28/09:00pm 28.3 29.2 18.4 55 6.5 NNE 11 15 6 8 1012.0 1008.1 0.2
28/08:30pm 28.5 30.1 19.1 56 6.2 ENE 9 11 5 6 1011.7 1007.8 0.2
28/08:00pm 28.3 31.4 19.5 59 5.8 SSE 2 7 1 4 1011.4 1007.5 0.2
28/07:30pm 29.9 31.7 17.4 47 8.1 N 4 11 2 6 1011.0 1007.1 0.2
28/07:00pm 30.7 31.5 17.4 45 8.6 NNW 9 11 5 6 1010.6 1006.7 0.2
28/06:30pm 31.4 32.2 17.3 43 9.1 NNW 9 13 5 7 1010.2 1006.3 0.2
28/06:00pm 32.1 31.4 16.4 39 10.1 NNW 15 20 8 11 1009.8 1005.9 0.2
28/05:30pm 32.3 30.2 15.3 35 10.7 NNW 20 26 11 14 1009.9 1006.0 0.2
28/05:00pm 33.7 31.3 16.5 35 11.1 N 24 35 13 19 1009.7 1005.8 0.2
28/04:30pm 34.1 32.6 17.8 38 10.7 N 22 32 12 17 1009.5 1005.5 0.2
28/04:00pm 34.4 32.2 14.3 30 12.6 NNW 19 30 10 16 1009.7 1005.8 0.2
28/03:30pm 32.1 33.4 19.4 47 8.5 SE 11 17 6 9 1010.0 1006.1 0.2
28/03:00pm 31.1 32.8 18.1 46 8.5 SSW 6 13 3 7 1010.5 1006.6 0.2
28/02:30pm 32.2 29.8 17.3 41 9.7 NNW 26 37 14 20 1009.6 1005.6 0.2
28/02:15pm 32.5 29.8 17.5 40 9.8 NNW 28 43 15 23 1010.0 1006.1 0.2
28/02:00pm 31.6 33.6 19.9 50 7.9 E 9 13 5 7 1010.1 1006.2 0.2
28/01:30pm 29.9 29.2 18.3 49 7.6 SSW 19 32 10 17 1010.8 1006.9 0.0
28/01:00pm 33.8 30.9 16.2 35 11.3 NNW 26 35 14 19 1010.6 1006.7 0.0
28/12:30pm 34.0 32.1 16.8 35 11.2 NW 22 37 12 20 1011.1 1007.2 0.0
28/12:00pm 33.2 34.0 18.2 41 9.9 NW 11 19 6 10 1011.8 1007.9 0.0
28/11:30am 32.7 33.1 18.1 42 9.6 W 13 24 7 13 1012.2 1008.3 0.0
28/11:00am 33.0 33.9 18.4 42 9.7 W 11 20 6 11 1012.6 1008.7 0.0
28/10:30am 31.9 33.2 18.5 45 8.9 NW 9 20 5 11 1013.0 1009.1 0.0
28/10:00am 31.0 33.2 18.4 47 8.3 NNE 4 13 2 7 1013.4 1009.5 0.0
28/09:30am 30.0 32.3 19.4 53 7.1 SW 6 13 3 7 1013.7 1009.8 0.0
28/09:00am 29.0 31.2 19.6 57 6.3 WSW 7 13 4 7 1013.7 1009.8 6.0
28/08:30am 27.8 29.6 19.6 61 5.4 NW 9 13 5 7 1013.7 1009.8 6.0
28/08:00am 26.2 28.8 20.1 69 4.1 W 6 9 3 5 1013.7 1009.8 6.0
28/07:30am 24.3 26.6 19.4 74 3.2 NW 6 7 3 4 1013.6 1009.7 6.0
28/07:00am 23.1 25.2 20.1 83 2.0 W 9 11 5 6 1013.6 1009.7 6.0
28/06:30am 21.7 23.7 20.0 90 1.1 SW 9 11 5 6 1013.2 1009.4 6.0
28/06:00am 20.6 22.3 20.1 97 0.3 WSW 11 15 6 8 1013.1 1009.3 6.0
28/05:30am 20.1 22.2 20.1 100 0.0 WSW 9 11 5 6 1013.0 1009.1 6.0
28/05:00am 20.0 22.6 20.0 100 0.0 W 6 11 3 6 1012.7 1008.8 6.0
28/04:30am 20.5 22.6 20.2 98 0.2 S 9 15 5 8 1012.3 1008.4 6.0
28/04:00am 20.1 22.2 20.1 100 0.0 NW 9 22 5 12 1012.6 1008.7 6.0
28/03:38am 20.1 23.1 20.1 100 0.0 NNW 4 11 2 6 1012.6 1008.7 6.0
28/03:30am 20.0 22.0 20.0 100 0.0 NNE 9 13 5 7 1012.5 1008.6 6.0
28/03:17am 20.1 22.1 19.9 99 0.1 NW 9 9 5 5 1012.8 1008.9 5.4
28/03:00am 20.3 22.8 19.8 97 0.3 S 6 7 3 4 1012.5 1008.6 4.2
28/02:30am 20.3 22.2 19.8 97 0.3 S 9 11 5 6 1012.9 1009.0 4.2
28/02:00am 20.4 22.6 19.6 95 0.5 SSW 7 9 4 5 1013.0 1009.1 4.2
28/01:30am 20.8 23.5 18.7 88 1.3 NE 2 7 1 4 1013.4 1009.5 4.2
28/01:00am 20.7 22.3 19.2 91 1.0 N 9 13 5 7 1013.9 1010.0 4.2
28/12:30am 20.7 20.3 19.4 92 0.8 NE 20 26 11 14 1014.0 1010.1 4.2
28/12:00am 20.4 19.3 19.4 94 0.6 NE 24 30 13 16 1014.8 1011.0 4.2
 
Date/Time
WST
Temp
°C
App
Temp
°C
Dew
Point
Rel
Hum
%
Delta-T
°C
Wind Press
QNH
hPa
Press
MSL
hPa
Rain
since 9 am
mm
Dir
 
Spd
km/h
Gust
km/h
Spd
kts
Gust
kts
27/11:30pm 20.6 20.2 19.4 93 0.8 N 20 26 11 14 1016.3 1012.4 3.6
27/11:00pm 20.6 20.2 19.4 93 0.8 N 20 30 11 16 1017.1 1013.3 2.4
27/10:30pm 20.5 20.5 19.0 91 1.0 N 17 24 9 13 1016.7 1012.9 1.4
27/10:00pm 22.0 21.6 18.0 78 2.5 WNW 17 33 9 18 1016.5 1012.6 0.4
27/09:30pm 23.8 26.1 19.5 77 2.8 E 6 15 3 8 1016.1 1012.2 0.0
27/09:00pm 23.9 25.3 19.6 77 2.8 SE 11 17 6 9 1014.3 1010.4 0.0
27/08:30pm 24.5 26.2 19.3 73 3.4 S 9 19 5 10 1014.2 1010.3 0.0
27/08:00pm 25.3 25.9 18.7 67 4.3 SSE 13 19 7 10 1013.8 1009.9 0.0
27/07:30pm 25.2 25.8 18.6 67 4.3 WSW 13 19 7 10 1014.4 1010.5 0.0
27/07:00pm 26.9 24.5 16.5 53 6.6 WSW 24 44 13 24 1013.9 1010.0 0.0
27/06:33pm 28.4 25.0 15.7 46 8.0 WNW 28 46 15 25 1012.3 1008.4 0.0
27/06:30pm 29.0 25.0 15.2 43 8.6 WNW 30 46 16 25 1012.2 1008.3 0.0
27/06:18pm 29.8 26.3 15.5 42 9.0 WNW 28 43 15 23 1012.0 1008.1 0.0
27/06:00pm 31.7 32.4 17.9 43 9.0 N 11 15 6 8 1011.2 1007.3 0.0
27/05:30pm 32.0 31.7 18.2 43 9.1 N 17 20 9 11 1010.4 1006.5 0.0
27/05:00pm 32.5 32.4 17.9 41 9.6 NNE 15 22 8 12 1009.5 1005.5 0.0
27/04:30pm 32.4 31.2 17.1 40 9.9 N 19 26 10 14 1010.0 1006.1 0.0
27/04:00pm 32.8 31.3 16.2 37 10.7 NNE 19 30 10 16 1009.7 1005.8 0.0
27/03:30pm 33.0 31.4 16.4 37 10.7 NNE 20 32 11 17 1010.3 1006.4 0.0
27/03:00pm 32.5 31.4 17.2 40 10.0 N 19 30 10 16 1010.9 1007.0 0.0
27/02:30pm 33.0 31.6 18.0 41 9.9 N 22 32 12 17 1011.4 1007.5 0.0
27/02:00pm 32.7 31.0 17.3 39 10.0 N 22 33 12 18 1011.8 1007.9 0.0
27/01:30pm 32.0 31.7 18.2 43 9.1 N 17 30 9 16 1012.1 1008.2 0.0
27/01:00pm 31.7 30.7 17.9 43 9.0 N 20 28 11 15 1012.3 1008.4 0.0
27/12:30pm 31.0 30.8 18.4 47 8.3 NNE 17 26 9 14 1012.7 1008.8 0.0
27/12:00pm 30.2 29.6 18.9 50 7.5 NE 20 33 11 18 1013.0 1009.1 0.0
27/11:30am 29.8 29.0 19.2 53 7.0 NNE 22 30 12 16 1013.5 1009.6 0.0
27/11:00am 29.3 29.2 18.7 52 7.0 N 17 26 9 14 1013.5 1009.6 0.0
27/10:30am 28.5 28.0 19.1 56 6.2 NNE 20 28 11 15 1013.9 1010.0 0.0
27/10:00am 26.8 26.0 18.4 60 5.5 N 20 28 11 15 1014.1 1010.2 0.0
27/09:30am 25.8 25.4 19.0 66 4.4 NNE 19 26 10 14 1014.5 1010.6 0.0
27/09:00am 25.0 24.3 18.7 68 4.1 NNE 20 28 11 15 1014.6 1010.7 11.2
27/08:30am 25.0 24.7 19.6 72 3.6 NNE 20 30 11 16 1014.7 1010.8 11.2
27/08:00am 23.8 24.6 19.9 79 2.6 NNE 15 20 8 11 1014.7 1010.8 11.2
27/07:30am 22.4 23.1 19.6 84 1.8 NNE 15 22 8 12 1014.8 1011.0 11.2
27/07:00am 21.4 23.0 19.1 87 1.5 ENE 9 13 5 7 1014.7 1010.8 11.2
27/06:30am 20.7 22.6 19.7 94 0.7 ESE 9 13 5 7 1014.3 1010.4 11.2
27/06:00am 20.4 21.1 19.6 95 0.5 ESE 15 20 8 11 1014.0 1010.1 11.2
27/05:30am 20.3 21.6 19.3 94 0.6 E 11 17 6 9 1014.4 1010.5 11.2
27/05:00am 20.3 20.9 19.5 95 0.5 ENE 15 22 8 12 1014.8 1011.0 11.2
27/04:30am 20.3 21.2 19.3 94 0.6 E 13 17 7 9 1014.9 1011.1 11.2
27/04:00am 20.2 20.8 19.5 96 0.5 ESE 15 19 8 10 1014.8 1011.0 11.2
27/03:30am 20.1 21.7 19.9 99 0.1 ESE 11 17 6 9 1015.1 1011.3 11.2
27/03:29am 20.1 21.3 19.9 99 0.1 ESE 13 17 7 9 1015.1 1011.3 11.2
27/03:00am 20.0 21.5 19.8 99 0.1 E 11 20 6 11 1015.0 1011.2 11.2
27/02:37am 20.0 21.2 20.0 100 0.0 ESE 13 17 7 9 1014.8 1011.0 11.2
27/02:30am 19.9 21.0 19.7 99 0.1 ESE 13 20 7 11 1014.7 1010.8 11.2
27/02:29am 19.9 21.0 19.7 99 0.1 ESE 13 20 7 11 1014.7 1010.8 11.2
27/02:00am 19.8 21.7 19.8 100 0.0 ESE 9 17 5 9 1015.0 1011.2 11.2
27/01:37am 19.8 21.6 19.6 99 0.1 S 9 15 5 8 1015.6 1011.7 10.6
27/01:30am 19.8 21.3 19.8 100 0.0 S 11 15 6 8 1015.4 1011.5 10.6
27/01:29am 19.8 21.2 19.6 99 0.1 S 11 15 6 8 1015.4 1011.5 10.6
27/01:07am 20.0 19.6 19.3 96 0.5 E 20 28 11 15 1013.6 1009.7 9.6
27/01:00am 20.2 19.8 19.4 95 0.5 E 20 28 11 15 1014.0 1010.1 8.8
27/12:30am 20.2 21.3 19.7 97 0.3 SE 13 17 7 9 1014.5 1010.6 8.6
27/12:00am 20.1 20.1 19.8 98 0.2 SSW 19 24 10 13 1015.4 1011.5 8.4
 
Date/Time
WST
Temp
°C
App
Temp
°C
Dew
Point
Rel
Hum
%
Delta-T
°C
Wind Press
QNH
hPa
Press
MSL
hPa
Rain
since 9 am
mm
Dir
 
Spd
km/h
Gust
km/h
Spd
kts
Gust
kts
26/11:30pm 20.1 19.9 19.8 98 0.2 ESE 20 28 11 15 1014.1 1010.2 8.4
26/11:00pm 20.4 22.1 20.1 98 0.2 SE 11 17 6 9 1015.9 1012.0 7.4
26/10:30pm 20.5 19.9 19.8 96 0.5 NNW 22 32 12 17 1017.2 1013.4 7.0
26/10:19pm 20.7 21.9 19.9 95 0.5 W 13 20 7 11 1016.8 1013.0 6.8
26/10:00pm 20.2 18.9 19.9 98 0.2 S 26 35 14 19 1014.5 1010.6 6.8
26/09:50pm 20.2 17.7 19.7 97 0.3 S 32 39 17 21 1014.3 1010.4 6.6
26/09:32pm 20.4 21.7 20.2 99 0.1 S 13 19 7 10 1015.7 1011.8 6.0
26/09:30pm 20.4 22.1 20.1 98 0.2 S 11 17 6 9 1015.8 1011.9 6.0
26/09:00pm 20.5 22.2 19.3 93 0.8 SSE 9 13 5 7 1016.1 1012.2 4.4
26/08:49pm 20.6 22.8 19.6 94 0.6 SW 7 13 4 7 1016.0 1012.1 3.6
26/08:30pm 20.5 21.9 19.5 94 0.6 S 11 19 6 10 1015.1 1011.3 2.6
26/08:00pm 21.1 18.3 19.0 88 1.4 SSW 32 48 17 26 1014.1 1010.2 1.8
26/07:47pm 21.1 18.2 19.2 89 1.2 SW 33 52 18 28 1013.8 1009.9 1.8
26/07:32pm 20.7 16.8 18.8 89 1.2 WSW 37 56 20 30 1013.1 1009.3 1.4
26/07:30pm 20.7 16.5 19.0 90 1.1 WSW 39 56 21 30 1013.0 1009.1 1.4
26/07:20pm 20.8 15.4 19.1 90 1.1 WSW 46 65 25 35 1012.6 1008.7 0.6
26/07:00pm 24.2 17.3 17.4 65 4.3 SW 50 70 27 38 1012.5 1008.6 0.0
26/06:51pm 27.9 23.6 15.5 46 7.7 SW 32 59 17 32 1011.9 1008.0 0.0
26/06:30pm 33.0 32.5 12.6 29 12.4 ENE 7 11 4 6 1010.3 1006.4 0.0
26/06:00pm 33.3 31.6 12.3 28 12.8 ENE 13 20 7 11 1009.5 1005.5 0.0
26/05:30pm 33.7 31.7 12.7 28 12.8 ENE 15 20 8 11 1009.1 1005.2 0.0
26/05:00pm 34.0 31.5 12.4 27 13.2 E 17 24 9 13 1009.0 1005.1 0.0
26/04:30pm 34.4 32.8 12.7 27 13.3 NE 13 22 7 12 1008.9 1005.0 0.0
26/04:00pm 34.5 32.0 11.0 24 14.1 E 15 24 8 13 1009.4 1005.4 0.0
26/03:30pm 34.7 31.5 11.8 25 13.9 E 20 35 11 19 1009.5 1005.5 0.0
26/03:00pm 34.4 32.8 12.7 27 13.3 N 13 15 7 8 1010.1 1006.2 0.0
26/02:30pm 34.6 31.5 12.3 26 13.6 NE 20 28 11 15 1010.3 1006.4 0.0

Other Formats:

Comma delimited format used in spreadsheet applications
http://www.bom.gov.au/fwo/IDW60801/IDW60801.94317.axf

JavaScript Object Notation format (JSON) in row-major order
http://www.bom.gov.au/fwo/IDW60801/IDW60801.94317.json